Time;durP1;ratioP1;P1;durP2;ratioP2;P2;SDS_P1;SDS_P2;PMS_P1;PMS_P2;Temp;Humidity;BMP_temperature;BMP_pressure;BME280_temperature;BME280_humidity;BME280_pressure;Samples;Min_cycle;Max_cycle;Signal;HPM_P1;HPM_P2
2024/02/19 00:02:11;;;;;;;12.25;3.03;;;;;;;;;;5064304;28;20068;-72
2024/02/19 00:04:37;;;;;;;6.68;2.30;;;;;;;;;;5069019;28;20029;-72
2024/02/19 00:07:04;;;;;;;6.38;2.20;;;;;;;;;;5059528;28;20056;-71
2024/02/19 00:09:30;;;;;;;2.97;2.10;;;;;;;;;;5062869;28;20115;-70
2024/02/19 00:11:56;;;;;;;8.85;2.13;;;;;;;;;;5070088;28;20025;-71
2024/02/19 00:14:22;;;;;;;6.57;1.85;;;;;;;;;;5061612;28;20029;-71
2024/02/19 00:16:48;;;;;;;7.75;2.70;;;;;;;;;;5056511;28;20643;-73
2024/02/19 00:19:14;;;;;;;9.02;2.28;;;;;;;;;;5060936;28;20043;-71
2024/02/19 00:21:41;;;;;;;5.18;2.63;;;;;;;;;;5066539;28;20028;-72
2024/02/19 00:24:07;;;;;;;7.63;2.88;;;;;;;;;;5062701;28;20097;-71
2024/02/19 00:26:33;;;;;;;8.00;2.17;;;;;;;;;;5062669;28;20493;-70
2024/02/19 00:29:00;;;;;;;9.77;2.65;;;;;;;;;;5060357;28;20032;-73
2024/02/19 00:31:27;;;;;;;6.60;2.85;;;;;;;;;;5061480;28;20027;-72
2024/02/19 00:33:53;;;;;;;4.38;2.00;;;;;;;;;;5068205;28;20021;-71
2024/02/19 00:36:20;;;;;;;5.30;1.98;;;;;;;;;;5067120;28;20463;-71
2024/02/19 00:38:46;;;;;;;7.28;2.92;;;;;;;;;;5063966;28;20074;-72
2024/02/19 00:41:12;;;;;;;6.95;3.13;;;;;;;;;;5063361;28;20380;-71
2024/02/19 00:43:39;;;;;;;7.38;2.78;;;;;;;;;;5064988;28;20028;-70
2024/02/19 00:46:05;;;;;;;14.80;2.72;;;;;;;;;;5060755;28;20115;-71
2024/02/19 00:48:31;;;;;;;8.35;2.40;;;;;;;;;;5063141;28;20030;-71
2024/02/19 00:50:57;;;;;;;9.15;3.00;;;;;;;;;;5064531;28;20585;-71
2024/02/19 00:53:23;;;;;;;3.15;1.98;;;;;;;;;;5061677;28;20491;-71
2024/02/19 00:55:50;;;;;;;7.55;2.92;;;;;;;;;;5060038;28;20090;-71
2024/02/19 00:58:16;;;;;;;3.03;1.90;;;;;;;;;;5061259;28;20062;-71
2024/02/19 01:00:42;;;;;;;8.77;2.80;;;;;;;;;;5062107;28;20179;-70
2024/02/19 01:03:10;;;;;;;6.65;2.42;;;;;;;;;;5056821;28;20357;-71
2024/02/19 01:05:37;;;;;;;8.00;2.58;;;;;;;;;;5064808;28;20013;-71
2024/02/19 01:08:03;;;;;;;3.15;1.98;;;;;;;;;;5066226;28;20036;-71
2024/02/19 01:10:29;;;;;;;4.30;2.00;;;;;;;;;;5064781;28;20024;-71
2024/02/19 01:12:55;;;;;;;1.42;1.33;;;;;;;;;;5062683;28;20154;-70
2024/02/19 01:15:22;;;;;;;6.15;1.80;;;;;;;;;;5061227;28;20114;-71
2024/02/19 01:17:48;;;;;;;5.85;2.47;;;;;;;;;;5060824;28;20055;-70
2024/02/19 01:20:14;;;;;;;4.13;2.58;;;;;;;;;;5070075;28;20089;-70
2024/02/19 01:22:40;;;;;;;6.45;1.77;;;;;;;;;;5047671;28;20356;-71
2024/02/19 01:25:07;;;;;;;6.00;2.08;;;;;;;;;;5061715;28;20123;-70
2024/02/19 01:27:33;;;;;;;7.13;2.33;;;;;;;;;;5059128;28;20032;-70
2024/02/19 01:30:00;;;;;;;3.53;2.22;;;;;;;;;;5060592;28;20028;-69
2024/02/19 01:32:26;;;;;;;6.30;2.38;;;;;;;;;;5059361;28;20111;-70
2024/02/19 01:34:53;;;;;;;4.43;2.10;;;;;;;;;;5065087;28;20119;-69
2024/02/19 01:37:20;;;;;;;2.42;2.25;;;;;;;;;;5061744;28;20033;-71
2024/02/19 01:39:47;;;;;;;7.35;2.75;;;;;;;;;;5064152;28;20028;-70
2024/02/19 01:42:13;;;;;;;6.53;2.40;;;;;;;;;;5058289;28;20036;-70
2024/02/19 01:44:39;;;;;;;6.32;3.20;;;;;;;;;;5058739;28;20236;-70
2024/02/19 01:47:07;;;;;;;10.52;3.05;;;;;;;;;;5057738;28;20078;-71
2024/02/19 01:49:33;;;;;;;7.32;2.38;;;;;;;;;;5052759;28;20067;-70
2024/02/19 01:52:00;;;;;;;4.15;2.22;;;;;;;;;;5059741;28;20109;-70
2024/02/19 01:54:26;;;;;;;5.22;1.92;;;;;;;;;;5061423;28;20032;-70
2024/02/19 01:56:53;;;;;;;5.13;2.20;;;;;;;;;;5065422;28;20020;-70
2024/02/19 01:59:21;;;;;;;2.72;2.00;;;;;;;;;;5060909;28;20032;-71
2024/02/19 02:01:48;;;;;;;6.35;1.85;;;;;;;;;;5056212;28;20164;-70
2024/02/19 02:04:15;;;;;;;6.95;2.08;;;;;;;;;;5058929;28;20115;-70
2024/02/19 02:06:41;;;;;;;9.50;2.15;;;;;;;;;;5060056;28;20066;-69
2024/02/19 02:09:07;;;;;;;7.15;1.75;;;;;;;;;;5056114;28;20037;-69
2024/02/19 02:11:33;;;;;;;2.65;1.90;;;;;;;;;;5056348;28;20051;-70
2024/02/19 02:14:00;;;;;;;4.38;2.45;;;;;;;;;;5059946;28;20087;-70
2024/02/19 02:16:28;;;;;;;11.25;2.40;;;;;;;;;;5068722;28;20028;-71
2024/02/19 02:18:54;;;;;;;9.57;2.42;;;;;;;;;;5064442;28;20024;-69
2024/02/19 02:21:21;;;;;;;7.38;1.92;;;;;;;;;;5063901;28;20115;-70
2024/02/19 02:23:47;;;;;;;12.27;1.88;;;;;;;;;;5057242;28;20024;-71
2024/02/19 02:26:14;;;;;;;3.92;2.25;;;;;;;;;;5059426;28;20047;-71
2024/02/19 02:28:42;;;;;;;7.93;2.55;;;;;;;;;;5065329;28;20025;-71
2024/02/19 02:31:08;;;;;;;4.78;2.00;;;;;;;;;;5057283;28;20082;-71
2024/02/19 02:33:34;;;;;;;5.15;2.58;;;;;;;;;;5064433;28;20200;-71
2024/02/19 02:36:01;;;;;;;5.20;3.42;;;;;;;;;;5067079;28;20111;-72
2024/02/19 02:38:27;;;;;;;4.07;2.35;;;;;;;;;;5072987;28;20064;-72
2024/02/19 02:40:54;;;;;;;7.35;2.35;;;;;;;;;;5059336;28;20495;-73
2024/02/19 02:43:21;;;;;;;5.03;2.08;;;;;;;;;;5069100;28;20055;-71
2024/02/19 02:45:47;;;;;;;4.93;1.90;;;;;;;;;;5063128;28;20486;-70
2024/02/19 02:48:13;;;;;;;5.03;2.40;;;;;;;;;;5060312;28;20028;-70
2024/02/19 02:50:39;;;;;;;11.32;2.70;;;;;;;;;;5057558;28;20950;-71
2024/02/19 02:53:05;;;;;;;2.35;1.98;;;;;;;;;;5064281;28;20028;-70
2024/02/19 02:55:32;;;;;;;5.95;2.13;;;;;;;;;;5065305;28;20392;-70
2024/02/19 02:57:58;;;;;;;11.57;2.20;;;;;;;;;;5060258;28;20561;-70
2024/02/19 03:00:26;;;;;;;7.90;1.95;;;;;;;;;;5063369;28;20122;-71
2024/02/19 03:02:52;;;;;;;3.17;2.35;;;;;;;;;;5057272;28;20025;-71
2024/02/19 03:05:18;;;;;;;5.30;2.10;;;;;;;;;;5065935;28;20511;-70
2024/02/19 03:07:45;;;;;;;3.53;1.80;;;;;;;;;;5060348;28;20369;-71
2024/02/19 03:10:12;;;;;;;5.38;2.28;;;;;;;;;;5058149;28;20043;-71
2024/02/19 03:12:38;;;;;;;11.30;2.55;;;;;;;;;;5054255;28;20060;-70
2024/02/19 03:15:04;;;;;;;3.80;1.70;;;;;;;;;;5065933;28;20032;-70
2024/02/19 03:17:30;;;;;;;5.90;1.90;;;;;;;;;;5063307;28;20100;-71
2024/02/19 03:19:57;;;;;;;9.93;2.50;;;;;;;;;;5067449;28;20039;-71
2024/02/19 03:22:23;;;;;;;9.68;2.28;;;;;;;;;;5059009;28;20060;-70
2024/02/19 03:24:49;;;;;;;1.98;1.50;;;;;;;;;;5067931;28;20635;-69
2024/02/19 03:27:16;;;;;;;6.85;2.97;;;;;;;;;;5058249;28;20034;-70
2024/02/19 03:29:42;;;;;;;3.50;1.50;;;;;;;;;;5063693;28;20025;-71
2024/02/19 03:32:08;;;;;;;8.43;2.35;;;;;;;;;;5066961;28;20059;-73
2024/02/19 03:34:35;;;;;;;15.93;2.55;;;;;;;;;;5061976;28;20017;-71
2024/02/19 03:37:01;;;;;;;7.68;1.98;;;;;;;;;;5065529;28;20059;-70
2024/02/19 03:39:28;;;;;;;6.38;2.72;;;;;;;;;;5062669;28;20291;-71
2024/02/19 03:41:55;;;;;;;4.38;1.90;;;;;;;;;;5059266;28;20236;-71
2024/02/19 03:44:22;;;;;;;2.08;1.67;;;;;;;;;;5060605;28;20035;-71
2024/02/19 03:46:48;;;;;;;2.17;1.48;;;;;;;;;;5068041;28;20086;-71
2024/02/19 03:49:14;;;;;;;6.22;2.50;;;;;;;;;;5065714;28;20095;-71
2024/02/19 03:51:40;;;;;;;2.97;2.53;;;;;;;;;;5062041;28;20037;-70
2024/02/19 03:54:06;;;;;;;3.20;1.67;;;;;;;;;;5061789;28;20070;-71
2024/02/19 03:56:33;;;;;;;5.57;2.75;;;;;;;;;;5057937;28;20416;-71
2024/02/19 03:58:59;;;;;;;8.45;2.60;;;;;;;;;;5064757;28;20433;-70
2024/02/19 04:01:25;;;;;;;2.85;1.80;;;;;;;;;;5061406;28;20405;-71
2024/02/19 04:03:52;;;;;;;4.03;2.33;;;;;;;;;;5061768;28;20031;-71
2024/02/19 04:06:18;;;;;;;6.10;2.00;;;;;;;;;;5057206;28;20056;-71
2024/02/19 04:08:44;;;;;;;3.20;2.13;;;;;;;;;;5063915;28;20017;-70
2024/02/19 04:11:10;;;;;;;6.90;2.25;;;;;;;;;;5061923;28;20051;-70
2024/02/19 04:13:37;;;;;;;8.45;2.95;;;;;;;;;;5065090;28;20028;-71
2024/02/19 04:16:03;;;;;;;5.25;2.03;;;;;;;;;;5060758;28;20043;-71
2024/02/19 04:18:29;;;;;;;6.72;1.80;;;;;;;;;;5059769;28;20021;-71
2024/02/19 04:20:55;;;;;;;4.32;2.15;;;;;;;;;;5063055;28;20040;-71
2024/02/19 04:23:21;;;;;;;4.32;1.95;;;;;;;;;;5060774;28;20023;-70
2024/02/19 04:25:48;;;;;;;8.48;2.42;;;;;;;;;;5060909;28;20483;-71
2024/02/19 04:28:14;;;;;;;2.28;2.08;;;;;;;;;;5059124;28;20021;-71
2024/02/19 04:30:40;;;;;;;8.70;2.22;;;;;;;;;;5060134;28;20046;-71
2024/02/19 04:33:06;;;;;;;8.57;2.05;;;;;;;;;;5058235;28;20091;-71
2024/02/19 04:35:32;;;;;;;6.78;1.77;;;;;;;;;;5065419;28;20028;-71
2024/02/19 04:37:59;;;;;;;8.73;2.45;;;;;;;;;;5064704;28;20044;-71
2024/02/19 04:40:25;;;;;;;3.20;1.60;;;;;;;;;;5065317;28;20029;-71
2024/02/19 04:42:51;;;;;;;8.52;1.80;;;;;;;;;;5058787;28;20033;-71
2024/02/19 04:45:17;;;;;;;8.55;2.05;;;;;;;;;;5064034;28;20033;-71
2024/02/19 04:47:43;;;;;;;6.90;2.13;;;;;;;;;;5071937;28;20115;-71
2024/02/19 04:50:10;;;;;;;4.38;2.05;;;;;;;;;;5057697;28;20443;-71
2024/02/19 04:52:36;;;;;;;12.77;2.45;;;;;;;;;;5056108;28;20165;-70
2024/02/19 04:55:03;;;;;;;6.70;2.45;;;;;;;;;;5062583;28;20032;-71
2024/02/19 04:57:29;;;;;;;10.13;2.40;;;;;;;;;;5060459;28;20035;-71
2024/02/19 04:59:55;;;;;;;14.40;3.03;;;;;;;;;;5057972;28;20610;-70
2024/02/19 05:02:22;;;;;;;7.53;2.50;;;;;;;;;;5063624;28;20048;-71
2024/02/19 05:04:48;;;;;;;15.93;2.55;;;;;;;;;;5057394;28;20028;-71
2024/02/19 05:07:15;;;;;;;3.70;2.10;;;;;;;;;;5059495;28;20029;-71
2024/02/19 05:09:42;;;;;;;7.60;3.40;;;;;;;;;;5094252;28;20243;-70
2024/02/19 05:12:08;;;;;;;7.95;2.60;;;;;;;;;;5064602;28;20411;-72
2024/02/19 05:14:34;;;;;;;7.85;2.28;;;;;;;;;;5062994;28;20029;-70
2024/02/19 05:17:00;;;;;;;11.70;2.90;;;;;;;;;;5061475;28;20025;-71
2024/02/19 05:19:26;;;;;;;4.22;2.45;;;;;;;;;;5062217;28;20458;-71
2024/02/19 05:21:54;;;;;;;14.15;4.10;;;;;;;;;;5056830;28;20542;-71
2024/02/19 05:24:20;;;;;;;5.75;2.72;;;;;;;;;;5057502;28;21016;-72
2024/02/19 05:26:46;;;;;;;9.43;2.20;;;;;;;;;;5057608;28;20029;-71
2024/02/19 05:29:12;;;;;;;7.57;3.28;;;;;;;;;;5064045;28;20055;-71
2024/02/19 05:31:39;;;;;;;5.95;3.03;;;;;;;;;;5061196;28;20056;-70
2024/02/19 05:34:06;;;;;;;8.75;3.00;;;;;;;;;;5062227;28;20024;-72
2024/02/19 05:36:33;;;;;;;7.88;2.35;;;;;;;;;;5059292;28;20052;-72
2024/02/19 05:38:59;;;;;;;11.13;3.05;;;;;;;;;;5065430;28;20422;-72
2024/02/19 05:41:26;;;;;;;18.13;4.38;;;;;;;;;;5060260;28;20024;-71
2024/02/19 05:43:52;;;;;;;13.32;4.07;;;;;;;;;;5060842;28;20548;-71
2024/02/19 05:46:19;;;;;;;11.15;3.40;;;;;;;;;;5061663;28;20059;-71
2024/02/19 05:48:46;;;;;;;14.85;3.72;;;;;;;;;;5061977;28;20020;-72
2024/02/19 05:51:12;;;;;;;13.98;3.72;;;;;;;;;;5058183;28;20032;-72
2024/02/19 05:53:40;;;;;;;13.43;3.47;;;;;;;;;;5062164;28;20450;-72
2024/02/19 05:56:09;;;;;;;17.92;5.75;;;;;;;;;;5060644;28;20407;-71
2024/02/19 05:58:39;;;;;;;9.32;2.47;;;;;;;;;;5058951;28;20100;-72
2024/02/19 06:01:05;;;;;;;11.65;2.97;;;;;;;;;;5062409;28;20051;-71
2024/02/19 06:03:36;;;;;;;11.23;2.80;;;;;;;;;;5058791;28;20121;-72
2024/02/19 06:06:03;;;;;;;26.60;3.47;;;;;;;;;;5059330;28;20399;-70
2024/02/19 06:08:29;;;;;;;17.65;3.60;;;;;;;;;;5053402;28;20613;-71
2024/02/19 06:10:56;;;;;;;9.68;2.97;;;;;;;;;;5061152;28;20480;-70
2024/02/19 06:13:22;;;;;;;19.20;4.95;;;;;;;;;;5061746;28;20036;-71
2024/02/19 06:15:49;;;;;;;13.88;3.50;;;;;;;;;;5061290;28;20418;-71
2024/02/19 06:18:15;;;;;;;16.70;3.10;;;;;;;;;;5061059;28;20588;-71
2024/02/19 06:20:41;;;;;;;14.52;4.93;;;;;;;;;;5061146;28;20029;-72
2024/02/19 06:23:07;;;;;;;13.88;4.22;;;;;;;;;;5054726;28;20533;-71
2024/02/19 06:25:34;;;;;;;19.35;4.18;;;;;;;;;;5063622;28;20041;-71
2024/02/19 06:28:02;;;;;;;18.75;4.15;;;;;;;;;;5057514;28;20164;-71
2024/02/19 06:30:28;;;;;;;19.02;4.47;;;;;;;;;;5054108;28;20059;-71
2024/02/19 06:32:54;;;;;;;20.15;3.50;;;;;;;;;;5059159;28;20028;-71
2024/02/19 06:35:20;;;;;;;15.50;3.25;;;;;;;;;;5073834;28;20314;-71
2024/02/19 06:37:46;;;;;;;13.38;3.65;;;;;;;;;;5063045;28;20040;-71
2024/02/19 06:40:13;;;;;;;13.85;3.08;;;;;;;;;;5059868;28;20036;-71
2024/02/19 06:42:42;;;;;;;16.40;3.78;;;;;;;;;;5062302;28;20523;-72
2024/02/19 06:45:09;;;;;;;15.00;3.40;;;;;;;;;;5063926;28;20028;-71
2024/02/19 06:47:36;;;;;;;17.80;3.38;;;;;;;;;;5054788;28;20400;-72
2024/02/19 06:50:03;;;;;;;15.02;4.65;;;;;;;;;;5064977;28;20368;-70
2024/02/19 06:52:30;;;;;;;18.38;4.50;;;;;;;;;;5057561;28;20571;-70
2024/02/19 06:54:56;;;;;;;21.98;4.38;;;;;;;;;;5068954;28;20028;-71
2024/02/19 06:57:23;;;;;;;13.55;3.45;;;;;;;;;;5054173;28;20028;-70
2024/02/19 06:59:49;;;;;;;23.25;4.53;;;;;;;;;;5047243;28;20016;-71
2024/02/19 07:02:15;;;;;;;29.00;4.60;;;;;;;;;;5069430;28;20268;-71
2024/02/19 07:04:41;;;;;;;13.73;3.28;;;;;;;;;;5046299;28;20021;-71
2024/02/19 07:07:10;;;;;;;19.08;4.75;;;;;;;;;;5064716;28;20066;-71
2024/02/19 07:09:37;;;;;;;19.67;3.85;;;;;;;;;;5069697;28;20028;-71
2024/02/19 07:12:03;;;;;;;21.48;5.03;;;;;;;;;;5068548;28;20435;-71
2024/02/19 07:14:39;;;;;;;36.15;4.95;;;;;;;;;;5074027;28;20461;-70
2024/02/19 07:17:05;;;;;;;;;;;;;;;;;;5057395;28;20166;-71
2024/02/19 07:19:31;;;;;;;;;;;;;;;;;;5072888;28;19904;-70
2024/02/19 07:21:57;;;;;;;15.07;4.30;;;;;;;;;;5065901;28;19997;-71
2024/02/19 07:24:24;;;;;;;22.80;5.88;;;;;;;;;;5065501;28;20889;-71
2024/02/19 07:26:50;;;;;;;15.30;4.13;;;;;;;;;;5076470;28;20085;-71
2024/02/19 07:29:16;;;;;;;20.38;4.78;;;;;;;;;;5052369;28;20029;-70
2024/02/19 07:31:42;;;;;;;22.90;3.92;;;;;;;;;;5070879;28;20403;-71
2024/02/19 07:34:08;;;;;;;13.00;4.22;;;;;;;;;;5062821;28;20037;-71
2024/02/19 07:36:34;;;;;;;8.75;3.03;;;;;;;;;;5063979;28;20028;-71
2024/02/19 07:39:00;;;;;;;17.58;3.97;;;;;;;;;;5059058;28;20037;-70
2024/02/19 07:41:27;;;;;;;17.30;4.28;;;;;;;;;;5068321;28;20031;-71
2024/02/19 07:43:53;;;;;;;20.17;3.53;;;;;;;;;;5062260;28;20035;-70
2024/02/19 07:46:21;;;;;;;15.48;3.78;;;;;;;;;;5087874;28;20021;-71
2024/02/19 07:48:48;;;;;;;19.40;4.40;;;;;;;;;;5070177;28;20377;-71
2024/02/19 07:51:14;;;;;;;26.23;4.78;;;;;;;;;;5065026;28;20415;-71
2024/02/19 07:53:42;;;;;;;13.73;3.78;;;;;;;;;;5061930;28;20025;-71
2024/02/19 07:56:08;;;;;;;27.05;4.85;;;;;;;;;;5060644;28;20040;-71
2024/02/19 07:58:35;;;;;;;15.25;3.83;;;;;;;;;;5080051;28;20103;-71
2024/02/19 08:01:05;;;;;;;26.27;5.00;;;;;;;;;;5067039;28;20041;-71
2024/02/19 08:03:32;;;;;;;16.65;4.57;;;;;;;;;;5071260;28;20025;-71
2024/02/19 08:05:58;;;;;;;7.38;3.90;;;;;;;;;;5070031;28;20593;-70
2024/02/19 08:08:25;;;;;;;20.88;4.78;;;;;;;;;;5068617;28;20733;-71
2024/02/19 08:10:51;;;;;;;21.65;4.38;;;;;;;;;;5062121;28;20025;-71
2024/02/19 08:13:17;;;;;;;20.90;5.25;;;;;;;;;;5051399;28;20034;-70
2024/02/19 08:15:44;;;;;;;31.98;5.00;;;;;;;;;;5065114;28;20020;-71
2024/02/19 08:18:11;;;;;;;22.70;4.18;;;;;;;;;;5064518;28;20024;-72
2024/02/19 08:20:40;;;;;;;31.67;3.70;;;;;;;;;;5063381;28;20028;-72
2024/02/19 08:23:07;;;;;;;17.50;3.50;;;;;;;;;;5055103;28;20464;-71
2024/02/19 08:25:33;;;;;;;19.75;5.18;;;;;;;;;;5058180;28;20031;-71
2024/02/19 08:28:00;;;;;;;25.55;4.55;;;;;;;;;;5053664;28;20025;-71
2024/02/19 08:30:26;;;;;;;22.25;5.07;;;;;;;;;;5058948;28;20049;-72
2024/02/19 08:32:52;;;;;;;19.65;3.85;;;;;;;;;;5062587;28;20028;-72
2024/02/19 08:35:18;;;;;;;14.23;5.18;;;;;;;;;;5059625;28;20094;-71
2024/02/19 08:37:45;;;;;;;14.15;2.80;;;;;;;;;;5061350;28;20020;-71
2024/02/19 08:40:11;;;;;;;9.32;3.40;;;;;;;;;;5067052;28;20036;-71
2024/02/19 08:42:37;;;;;;;23.17;5.40;;;;;;;;;;5061674;28;20028;-71
2024/02/19 08:45:04;;;;;;;8.73;5.00;;;;;;;;;;5066454;28;20151;-71
2024/02/19 08:47:30;;;;;;;15.30;4.88;;;;;;;;;;5045724;28;20036;-72
2024/02/19 08:49:57;;;;;;;15.65;3.80;;;;;;;;;;5064646;28;20028;-71
2024/02/19 08:52:23;;;;;;;10.38;3.70;;;;;;;;;;5063410;28;20035;-72
2024/02/19 08:54:49;;;;;;;29.60;4.82;;;;;;;;;;5068455;28;20028;-72
2024/02/19 08:57:16;;;;;;;14.65;4.00;;;;;;;;;;5056381;28;20033;-71
2024/02/19 08:59:45;;;;;;;15.20;4.65;;;;;;;;;;5054626;28;20535;-72
2024/02/19 09:02:14;;;;;;;23.63;4.40;;;;;;;;;;5061868;28;20524;-72
2024/02/19 09:04:41;;;;;;;21.05;3.97;;;;;;;;;;5067332;28;20217;-71
2024/02/19 09:07:07;;;;;;;19.50;4.25;;;;;;;;;;5067706;28;20098;-70
2024/02/19 09:09:34;;;;;;;13.38;4.32;;;;;;;;;;5090328;28;20393;-71
2024/02/19 09:12:00;;;;;;;23.20;3.92;;;;;;;;;;5060788;28;20292;-71
2024/02/19 09:14:27;;;;;;;15.20;4.50;;;;;;;;;;5069093;28;20437;-72
2024/02/19 09:16:56;;;;;;;12.13;3.95;;;;;;;;;;5058467;28;20036;-71
2024/02/19 09:19:22;;;;;;;19.42;4.90;;;;;;;;;;5055647;28;20103;-71
2024/02/19 09:21:49;;;;;;;20.40;4.80;;;;;;;;;;5059072;28;20020;-71
2024/02/19 09:24:15;;;;;;;13.27;4.20;;;;;;;;;;5061553;28;20104;-70
2024/02/19 09:26:44;;;;;;;10.98;3.10;;;;;;;;;;5064459;28;20048;-71
2024/02/19 09:29:11;;;;;;;18.95;4.63;;;;;;;;;;5060860;28;20070;-71
2024/02/19 09:31:37;;;;;;;8.63;3.67;;;;;;;;;;5064091;28;20020;-72
2024/02/19 09:34:03;;;;;;;14.23;4.30;;;;;;;;;;5055692;28;20035;-71
2024/02/19 09:36:29;;;;;;;19.65;3.83;;;;;;;;;;5057158;28;20032;-71
2024/02/19 09:38:56;;;;;;;21.85;4.55;;;;;;;;;;5048842;28;20475;-70
2024/02/19 09:41:22;;;;;;;23.25;3.92;;;;;;;;;;5056333;28;20484;-72
2024/02/19 09:43:49;;;;;;;15.98;3.53;;;;;;;;;;5050371;28;20059;-70
2024/02/19 09:46:17;;;;;;;14.13;4.95;;;;;;;;;;5050758;28;20078;-71
2024/02/19 09:48:50;;;;;;;13.38;4.43;;;;;;;;;;5062343;28;20063;-71
2024/02/19 09:51:21;;;;;;;9.73;3.65;;;;;;;;;;5056864;28;20032;-71
2024/02/19 09:53:51;;;;;;;17.33;4.90;;;;;;;;;;5061544;28;20162;-70
2024/02/19 09:56:19;;;;;;;17.45;3.58;;;;;;;;;;5055711;28;20036;-71
2024/02/19 09:58:49;;;;;;;17.65;3.60;;;;;;;;;;5064252;28;20036;-71
2024/02/19 10:01:15;;;;;;;14.60;4.78;;;;;;;;;;5052652;28;20049;-71
2024/02/19 10:03:42;;;;;;;26.00;3.83;;;;;;;;;;5046187;28;20025;-71
2024/02/19 10:06:08;;;;;;;16.38;4.72;;;;;;;;;;5050438;28;20447;-70
2024/02/19 10:08:35;;;;;;;15.80;4.22;;;;;;;;;;5041017;28;20024;-70
2024/02/19 10:11:08;;;;;;;19.33;3.90;;;;;;;;;;5055234;28;20016;-72
2024/02/19 10:13:36;;;;;;;16.98;5.00;;;;;;;;;;5057380;28;20025;-61
2024/02/19 10:16:03;;;;;;;19.67;5.85;;;;;;;;;;5056096;28;20064;-61
2024/02/19 10:18:29;;;;;;;15.85;4.07;;;;;;;;;;5058118;28;20654;-61
2024/02/19 10:20:58;;;;;;;23.10;4.15;;;;;;;;;;5057761;28;20384;-61
2024/02/19 10:23:25;;;;;;;15.45;3.67;;;;;;;;;;5052828;28;20029;-61
2024/02/19 10:25:51;;;;;;;27.45;4.53;;;;;;;;;;5061545;28;20504;-61
2024/02/19 10:28:28;;;;;;;20.77;5.30;;;;;;;;;;5052726;28;20104;-61
2024/02/19 10:30:54;;;;;;;24.98;5.53;;;;;;;;;;5060087;28;20853;-62
2024/02/19 10:33:21;;;;;;;15.88;3.97;;;;;;;;;;5049909;28;20090;-61
2024/02/19 10:35:48;;;;;;;16.17;3.72;;;;;;;;;;5053249;28;20021;-62
2024/02/19 10:38:16;;;;;;;14.35;4.72;;;;;;;;;;5059878;28;20480;-62
2024/02/19 10:40:42;;;;;;;20.15;4.60;;;;;;;;;;5065659;28;20531;-61
2024/02/19 10:43:09;;;;;;;21.48;3.97;;;;;;;;;;5066877;28;20040;-62
2024/02/19 10:45:36;;;;;;;19.27;5.40;;;;;;;;;;5064946;28;20358;-61
2024/02/19 10:48:02;;;;;;;16.75;4.22;;;;;;;;;;5057668;28;20114;-61
2024/02/19 10:50:33;;;;;;;23.17;4.72;;;;;;;;;;5066397;28;20013;-62
2024/02/19 10:52:59;;;;;;;15.27;3.80;;;;;;;;;;5051681;28;20440;-65
2024/02/19 10:55:27;;;;;;;21.40;4.10;;;;;;;;;;5074095;28;20033;-61
2024/02/19 10:57:54;;;;;;;18.88;4.65;;;;;;;;;;5052647;28;20053;-61
2024/02/19 11:00:25;;;;;;;10.23;3.83;;;;;;;;;;5064356;28;20044;-61
2024/02/19 11:03:13;;;;;;;17.00;4.80;;;;;;;;;;5056585;28;20025;-61
2024/02/19 11:05:40;;;;;;;20.13;4.22;;;;;;;;;;5054565;28;20162;-61
2024/02/19 11:08:18;;;;;;;14.82;4.07;;;;;;;;;;5063042;28;20060;-61
2024/02/19 11:10:49;;;;;;;13.32;3.88;;;;;;;;;;5055097;28;20502;-61
2024/02/19 11:13:21;;;;;;;14.80;3.40;;;;;;;;;;5062300;28;20040;-61
2024/02/19 11:15:48;;;;;;;16.00;4.40;;;;;;;;;;5066351;28;20781;-61
2024/02/19 11:18:17;;;;;;;14.27;4.15;;;;;;;;;;5056760;28;20032;-62
2024/02/19 11:20:45;;;;;;;17.70;3.58;;;;;;;;;;5046420;28;20031;-61
2024/02/19 11:23:11;;;;;;;30.15;4.40;;;;;;;;;;5064123;28;20025;-61
2024/02/19 11:25:38;;;;;;;16.52;4.68;;;;;;;;;;5059964;28;20016;-62
2024/02/19 11:28:05;;;;;;;26.02;3.95;;;;;;;;;;5062121;28;20165;-61
2024/02/19 11:30:31;;;;;;;10.98;4.05;;;;;;;;;;5052870;28;20472;-62
2024/02/19 11:33:04;;;;;;;16.20;4.28;;;;;;;;;;5059332;28;20084;-65
2024/02/19 11:35:31;;;;;;;12.48;3.42;;;;;;;;;;5064955;28;20032;-62
2024/02/19 11:37:57;;;;;;;16.98;4.85;;;;;;;;;;5066452;28;20039;-62
2024/02/19 11:40:33;;;;;;;15.52;3.50;;;;;;;;;;5071524;28;20024;-65
2024/02/19 11:43:00;;;;;;;10.90;3.30;;;;;;;;;;5064816;28;20032;-61
2024/02/19 11:45:28;;;;;;;14.88;4.03;;;;;;;;;;5057803;28;20770;-61
2024/02/19 11:47:55;;;;;;;27.27;3.65;;;;;;;;;;5057396;28;20025;-61
2024/02/19 11:50:25;;;;;;;19.98;4.90;;;;;;;;;;5057195;28;20025;-63
2024/02/19 11:52:53;;;;;;;15.25;3.08;;;;;;;;;;5052053;28;20024;-60
2024/02/19 11:55:20;;;;;;;17.92;3.78;;;;;;;;;;5067893;28;20442;-61
2024/02/19 11:57:48;;;;;;;11.80;3.28;;;;;;;;;;5062770;28;20013;-61
2024/02/19 12:00:14;;;;;;;10.32;3.97;;;;;;;;;;5051562;28;20129;-61
2024/02/19 12:02:53;;;;;;;13.32;3.72;;;;;;;;;;5046674;28;20534;-62
2024/02/19 12:05:20;;;;;;;14.30;4.32;;;;;;;;;;5053056;28;20575;-66
2024/02/19 12:07:50;;;;;;;12.18;3.70;;;;;;;;;;5062879;28;20029;-61
2024/02/19 12:10:17;;;;;;;9.95;4.07;;;;;;;;;;5062248;28;20025;-61
2024/02/19 12:12:44;;;;;;;18.60;3.78;;;;;;;;;;5050900;28;20353;-61
2024/02/19 12:15:11;;;;;;;17.98;3.30;;;;;;;;;;5064622;28;20452;-61
2024/02/19 12:17:38;;;;;;;9.27;3.67;;;;;;;;;;5066359;28;20029;-62
2024/02/19 12:20:05;;;;;;;10.60;3.35;;;;;;;;;;5054250;28;20021;-62
2024/02/19 12:22:32;;;;;;;17.75;4.05;;;;;;;;;;5066445;28;20044;-61
2024/02/19 12:24:59;;;;;;;11.48;3.72;;;;;;;;;;5052862;28;20040;-62
2024/02/19 12:27:25;;;;;;;9.75;3.38;;;;;;;;;;5068642;28;20025;-65
2024/02/19 12:29:52;;;;;;;11.80;2.80;;;;;;;;;;5053232;28;20021;-61
2024/02/19 12:32:22;;;;;;;11.25;3.15;;;;;;;;;;5050157;28;20124;-61
2024/02/19 12:34:48;;;;;;;12.32;3.65;;;;;;;;;;5065012;28;20077;-62
2024/02/19 12:37:17;;;;;;;12.93;3.22;;;;;;;;;;5063369;28;20028;-61
2024/02/19 12:39:43;;;;;;;15.38;3.00;;;;;;;;;;5052348;28;20037;-61
2024/02/19 12:42:10;;;;;;;8.68;2.97;;;;;;;;;;5052182;28;20025;-61
2024/02/19 12:44:36;;;;;;;10.27;3.42;;;;;;;;;;5049769;28;20092;-61
2024/02/19 12:47:04;;;;;;;9.90;2.95;;;;;;;;;;5048223;28;20866;-62
2024/02/19 12:49:32;;;;;;;11.70;3.75;;;;;;;;;;5063152;28;20031;-61
2024/02/19 12:52:02;;;;;;;10.63;3.47;;;;;;;;;;5064916;28;20027;-61
2024/02/19 12:54:29;;;;;;;8.45;3.20;;;;;;;;;;5057822;28;20039;-62
2024/02/19 12:56:55;;;;;;;11.50;2.75;;;;;;;;;;5062138;28;20039;-62
2024/02/19 12:59:24;;;;;;;17.40;3.22;;;;;;;;;;5052779;28;20021;-61
2024/02/19 13:01:51;;;;;;;9.45;4.18;;;;;;;;;;5082194;28;20053;-62
2024/02/19 13:04:20;;;;;;;7.20;3.92;;;;;;;;;;5060772;28;20085;-62
2024/02/19 13:06:47;;;;;;;11.43;2.97;;;;;;;;;;5057351;28;20898;-64
2024/02/19 13:09:14;;;;;;;23.55;5.00;;;;;;;;;;5058602;28;20070;-61
2024/02/19 13:11:40;;;;;;;10.90;3.03;;;;;;;;;;5056967;28;20455;-62
2024/02/19 13:14:07;;;;;;;13.35;4.47;;;;;;;;;;5057436;28;20028;-63
2024/02/19 13:16:35;;;;;;;6.03;2.63;;;;;;;;;;5056545;28;20370;-61
2024/02/19 13:19:01;;;;;;;8.55;2.88;;;;;;;;;;5047119;28;20543;-61
2024/02/19 13:21:27;;;;;;;15.23;3.33;;;;;;;;;;5058533;28;20421;-62
2024/02/19 13:23:54;;;;;;;13.10;3.70;;;;;;;;;;5070158;28;20063;-61
2024/02/19 13:26:20;;;;;;;6.15;2.42;;;;;;;;;;5075750;28;20128;-62
2024/02/19 13:28:46;;;;;;;14.38;2.80;;;;;;;;;;5060860;28;20024;-61
2024/02/19 13:31:13;;;;;;;8.88;2.72;;;;;;;;;;5059099;28;20070;-61
2024/02/19 13:33:40;;;;;;;13.85;3.42;;;;;;;;;;5063425;28;20496;-61
2024/02/19 13:36:06;;;;;;;15.60;3.63;;;;;;;;;;5057769;28;20029;-61
2024/02/19 13:38:32;;;;;;;8.02;2.50;;;;;;;;;;5061774;28;20021;-61
2024/02/19 13:41:02;;;;;;;21.73;3.45;;;;;;;;;;5059454;28;20021;-62
2024/02/19 13:43:29;;;;;;;11.73;2.67;;;;;;;;;;5058582;28;20052;-62
2024/02/19 13:45:56;;;;;;;11.27;3.50;;;;;;;;;;5060958;28;20442;-61
2024/02/19 13:48:24;;;;;;;11.60;3.38;;;;;;;;;;5062255;28;20483;-62
2024/02/19 13:50:56;;;;;;;5.65;2.60;;;;;;;;;;5060292;28;20020;-61
2024/02/19 13:53:25;;;;;;;14.48;2.83;;;;;;;;;;5056923;28;20036;-62
2024/02/19 13:55:51;;;;;;;13.45;4.35;;;;;;;;;;5057839;28;20025;-63
2024/02/19 13:58:18;;;;;;;5.50;2.42;;;;;;;;;;5073091;28;20067;-61
2024/02/19 14:00:45;;;;;;;6.00;2.30;;;;;;;;;;5062729;28;20440;-61
2024/02/19 14:03:12;;;;;;;10.93;4.40;;;;;;;;;;5053091;28;20512;-60
2024/02/19 14:05:38;;;;;;;8.18;3.38;;;;;;;;;;5061806;28;20013;-62
2024/02/19 14:08:04;;;;;;;11.77;3.47;;;;;;;;;;5052957;28;20032;-62
2024/02/19 14:10:30;;;;;;;10.55;3.00;;;;;;;;;;5053121;28;20022;-62
2024/02/19 14:12:57;;;;;;;16.58;3.88;;;;;;;;;;5056925;28;20056;-62
2024/02/19 14:15:24;;;;;;;12.43;4.45;;;;;;;;;;5050854;28;20063;-62
2024/02/19 14:17:52;;;;;;;7.53;2.67;;;;;;;;;;5047458;28;20107;-62
2024/02/19 14:20:19;;;;;;;17.15;3.25;;;;;;;;;;5066452;28;20040;-64
2024/02/19 14:22:45;;;;;;;15.05;2.83;;;;;;;;;;5061784;28;20597;-61
2024/02/19 14:25:11;;;;;;;10.05;3.30;;;;;;;;;;5063759;28;20052;-62
2024/02/19 14:27:44;;;;;;;15.75;3.28;;;;;;;;;;5064052;28;20021;-62
2024/02/19 14:30:11;;;;;;;10.82;3.08;;;;;;;;;;5058192;28;20056;-62
2024/02/19 14:32:42;;;;;;;14.82;2.97;;;;;;;;;;5061394;28;20036;-62
2024/02/19 14:35:09;;;;;;;16.85;3.83;;;;;;;;;;5063122;28;20037;-62